createdAt,value
2023-04-11T08:33:28.253Z,19.1094
2023-04-11T08:34:23.187Z,18.5418
2023-04-11T08:35:26.056Z,18.5581
2023-04-11T08:36:28.329Z,18.7477
2023-04-11T08:37:31.042Z,18.9819
2023-04-11T08:38:34.510Z,19.2074
2023-04-11T08:39:36.114Z,19.4527
2023-04-11T08:40:38.647Z,19.6415
2023-04-11T08:41:41.285Z,19.8323
2023-04-11T08:42:43.967Z,19.9886
2023-04-11T08:43:47.196Z,20.1275
2023-04-11T08:44:49.009Z,20.2425
2023-04-11T08:45:51.603Z,20.3631
2023-04-11T08:46:54.210Z,20.4658
2023-04-11T08:47:56.854Z,20.5582
2023-04-11T08:48:59.425Z,20.6334
2023-04-11T08:50:02.102Z,20.7164
2023-04-11T08:51:04.790Z,20.7922
2023-04-11T08:52:07.111Z,20.8581
2023-04-11T08:53:09.667Z,20.9226
2023-04-11T08:54:17.212Z,20.9914
2023-04-11T08:55:14.833Z,21.0494
2023-04-11T08:56:17.427Z,21.1173
2023-04-11T08:57:20.161Z,21.1681
2023-04-11T08:58:22.807Z,21.2059
2023-04-11T08:59:25.222Z,21.2412
2023-04-11T09:00:27.891Z,21.2718
2023-04-11T09:01:30.432Z,21.3139
2023-04-11T09:02:33.054Z,21.3458
2023-04-11T09:03:35.834Z,21.3817
2023-04-11T09:04:38.830Z,21.4150
2023-04-11T09:05:40.771Z,21.4417
2023-04-11T09:06:43.325Z,21.4661
2023-04-11T09:07:46.001Z,21.4842
2023-04-11T09:08:49.270Z,21.5121
2023-04-11T09:09:51.126Z,21.5347
2023-04-11T09:10:53.675Z,21.5618
2023-04-11T09:11:56.357Z,21.5781
2023-04-11T09:12:58.845Z,21.5972
2023-04-11T09:14:01.388Z,21.6120
2023-04-11T09:15:04.775Z,21.6257
2023-04-11T09:16:09.504Z,21.6598
2023-04-11T09:17:10.126Z,21.6839
2023-04-11T09:18:11.936Z,21.7087
2023-04-11T09:19:14.334Z,21.7075
2023-04-11T09:20:16.964Z,21.7104
2023-04-11T09:21:19.476Z,21.7056
2023-04-11T09:22:24.794Z,21.7194
2023-04-11T09:23:27.155Z,21.7163
2023-04-11T09:24:27.272Z,21.7247
2023-04-11T09:25:30.052Z,21.7219
2023-04-11T09:26:32.497Z,21.7067
2023-04-11T09:27:34.960Z,21.6974
2023-04-11T09:28:40.291Z,21.6987
2023-04-11T09:29:40.818Z,21.7011
2023-04-11T09:30:43.026Z,21.6777
2023-04-11T09:31:45.640Z,21.6863
2023-04-11T09:32:47.980Z,21.6874
2023-04-11T09:33:51.399Z,21.6962
2023-04-11T09:34:54.515Z,21.6855
2023-04-11T09:36:04.329Z,21.6882
2023-04-11T09:36:58.781Z,21.6990
2023-04-11T09:38:01.071Z,21.7019
2023-04-11T09:39:03.421Z,21.7042
2023-04-11T09:40:05.972Z,21.7260
2023-04-11T09:41:10.476Z,21.7198
2023-04-11T09:42:11.210Z,21.7229
2023-04-11T09:43:13.765Z,21.7301
2023-04-11T09:44:16.442Z,21.7422
2023-04-11T09:45:18.901Z,21.7231
2023-04-11T09:46:21.598Z,21.7223
2023-04-11T09:47:24.267Z,21.7276
2023-04-11T09:48:39.560Z,21.7574
2023-04-11T09:49:30.932Z,21.7611
2023-04-11T09:50:31.857Z,21.7508
2023-04-11T09:51:36.654Z,21.7734
2023-04-11T09:52:37.073Z,21.7841
2023-04-11T09:53:39.673Z,21.7358
2023-04-11T09:54:42.222Z,21.6206
2023-04-11T09:55:44.808Z,21.5388
2023-04-11T09:56:47.291Z,21.5526
2023-04-11T09:57:49.886Z,21.6064
2023-04-11T09:58:52.456Z,21.6288
2023-04-11T09:59:55.044Z,21.6639
2023-04-11T10:00:57.609Z,21.6865
2023-04-11T10:02:00.324Z,21.7079
2023-04-11T10:03:03.066Z,21.7073
2023-04-11T10:04:05.329Z,21.7202
2023-04-11T10:05:07.969Z,21.7249
2023-04-11T10:06:10.814Z,21.7342
2023-04-11T10:07:13.057Z,21.7432
2023-04-11T10:08:15.713Z,21.7551
2023-04-11T10:09:18.322Z,21.7595
2023-04-11T10:10:20.838Z,21.7607
2023-04-11T10:11:24.319Z,21.7615
2023-04-11T10:12:26.016Z,21.7722
2023-04-11T10:13:28.685Z,21.7796
2023-04-11T10:14:31.204Z,21.7769
2023-04-11T10:15:33.758Z,21.7931
2023-04-11T10:16:36.440Z,21.7940
2023-04-11T10:17:38.908Z,21.7909
2023-04-11T10:18:41.515Z,21.7921
2023-04-11T10:19:44.089Z,21.8030
2023-04-11T10:20:46.732Z,21.8106
2023-04-11T10:21:49.328Z,21.8192
2023-04-11T10:22:51.886Z,21.8127
2023-04-11T10:23:54.638Z,21.8018
2023-04-11T10:24:57.058Z,21.7942
2023-04-11T10:25:59.640Z,21.8001
2023-04-11T10:27:02.870Z,21.8057
2023-04-11T10:28:04.835Z,21.8048
2023-04-11T10:29:07.366Z,21.8012
2023-04-11T10:30:09.976Z,21.8203
2023-04-11T10:31:12.597Z,21.8157
2023-04-11T10:32:15.115Z,21.8174
2023-04-11T10:33:17.831Z,21.8034
2023-04-11T10:34:20.305Z,21.7730
2023-04-11T10:35:25.123Z,21.7802
2023-04-11T10:36:27.246Z,21.7582
2023-04-11T10:37:29.422Z,21.7627
2023-04-11T10:38:31.501Z,21.7999
2023-04-11T10:39:34.461Z,21.8069
2023-04-11T13:22:13.214Z,20.1423
2023-04-11T13:23:09.929Z,19.4617
2023-04-11T13:24:10.621Z,19.4083
2023-04-11T13:25:13.527Z,19.5435
2023-04-11T13:26:15.727Z,19.7452
2023-04-11T13:27:18.261Z,19.9525
2023-04-11T13:28:20.846Z,20.1538
2023-04-11T13:29:23.437Z,20.2969
2023-04-11T13:30:26.042Z,20.3970
2023-04-11T13:31:28.685Z,20.4837
2023-04-11T13:32:31.276Z,20.5293
2023-04-11T13:33:33.853Z,20.6519
2023-04-11T13:34:36.467Z,20.7706
2023-04-11T13:35:38.991Z,20.8758
2023-04-11T13:36:41.583Z,20.9690
2023-04-11T13:37:44.107Z,21.0528
2023-04-11T13:38:46.745Z,21.1290
2023-04-11T13:39:49.301Z,21.2065
2023-04-11T13:40:51.938Z,21.2665
2023-04-11T13:41:54.484Z,21.3180
2023-04-11T13:42:57.236Z,21.3694
2023-04-11T13:43:59.652Z,21.4172
2023-04-11T13:45:02.359Z,21.4606
2023-04-11T13:46:04.901Z,21.4963
2023-04-11T13:47:07.373Z,21.5271
2023-04-11T13:48:10.029Z,21.5635
2023-04-11T13:49:12.584Z,21.5974
2023-04-11T13:50:15.126Z,21.6210
2023-04-11T13:51:17.675Z,21.6475
2023-04-11T13:52:20.295Z,21.6758
2023-04-11T13:53:22.903Z,21.6952
2023-04-11T13:54:25.415Z,21.7192
2023-04-11T13:55:28.030Z,21.7451
2023-04-11T13:56:30.611Z,21.7537
2023-04-11T13:57:33.213Z,21.7738
2023-04-11T13:58:35.738Z,21.7960
2023-04-11T13:59:38.394Z,21.8102
2023-04-11T14:00:40.897Z,21.8219
2023-04-11T14:01:43.611Z,21.8244
2023-04-11T14:02:46.220Z,21.8377
2023-04-11T14:03:48.793Z,21.8484
2023-04-11T14:04:51.321Z,21.8626
2023-04-11T14:05:53.797Z,21.8858
2023-04-11T14:06:56.504Z,21.8997
2023-04-11T14:07:59.093Z,21.8961
2023-04-11T14:09:01.620Z,21.9004
2023-04-11T14:10:04.241Z,21.9195
2023-04-11T14:11:06.863Z,21.9361
2023-04-11T14:12:09.328Z,21.9527
2023-04-11T14:13:11.917Z,21.9556
2023-04-11T14:14:14.487Z,21.9651
2023-04-11T14:15:17.104Z,21.9632
2023-04-11T14:16:19.718Z,21.9653
2023-04-11T14:17:22.314Z,21.9661
2023-04-11T14:18:24.804Z,21.9891
2023-04-11T14:19:27.402Z,21.9990
2023-04-11T14:20:30.048Z,21.9959
2023-04-11T14:21:32.585Z,22.0047
2023-04-11T14:22:35.253Z,22.0014
2023-04-11T14:23:37.723Z,22.0152
2023-04-11T14:24:40.631Z,22.0140
2023-04-11T14:25:42.876Z,22.0232
2023-04-11T14:26:45.484Z,22.0255
2023-04-11T14:27:48.056Z,22.0320
2023-04-11T14:28:50.592Z,22.0435
2023-04-11T14:29:53.192Z,22.0507
2023-04-11T14:30:56.025Z,22.0407
2023-04-11T14:31:58.429Z,22.0470
2023-04-11T14:33:00.928Z,22.0489
2023-04-11T14:34:03.594Z,22.0452
2023-04-11T14:35:06.150Z,22.0612
2023-04-11T14:36:08.681Z,22.0635
2023-04-11T14:37:11.283Z,22.0725
2023-04-11T14:38:13.865Z,22.0692
2023-04-11T14:39:16.629Z,22.0840
2023-04-11T14:40:19.096Z,22.0869
2023-04-11T14:41:21.640Z,22.1039
2023-04-11T14:42:24.251Z,22.0840
2023-04-11T14:43:26.853Z,22.0778
2023-04-11T14:44:29.822Z,22.0768
2023-04-11T14:45:33.652Z,22.0723
2023-04-11T14:46:34.622Z,22.0651
2023-04-11T14:47:37.190Z,22.0941
2023-04-11T14:48:39.726Z,22.0879
2023-04-11T14:49:42.296Z,22.0830
2023-04-11T14:50:44.878Z,22.0811
2023-04-11T14:51:47.485Z,22.0789
2023-04-11T14:52:50.025Z,22.0647
2023-04-11T14:53:52.628Z,22.0427
2023-04-11T14:54:55.221Z,22.0316
2023-04-11T14:55:57.794Z,22.0353
2023-04-11T14:57:00.373Z,22.0520
2023-04-11T14:58:02.992Z,22.0774
2023-04-11T14:59:05.491Z,22.1070
2023-04-11T15:00:08.155Z,22.1193
2023-04-11T15:01:10.711Z,22.1411
2023-04-11T15:02:13.334Z,22.1791
2023-04-11T15:03:16.164Z,22.2036
2023-04-11T15:04:18.479Z,22.2138
2023-04-11T15:05:21.023Z,22.2214
2023-04-11T15:06:24.605Z,22.2489
2023-04-11T15:07:26.105Z,22.2672
2023-04-11T15:08:28.701Z,22.2962
2023-04-11T15:09:31.299Z,22.3122
2023-04-11T15:10:33.856Z,22.3385
2023-04-11T15:11:36.617Z,22.3851
2023-04-11T15:12:39.147Z,22.3767
2023-04-11T15:13:42.910Z,22.2549
2023-04-11T15:14:44.368Z,22.1380
2023-04-11T15:15:46.925Z,22.0209
2023-04-11T15:16:49.366Z,21.9170
2023-04-11T15:17:52.047Z,21.8626
2023-04-11T15:18:54.486Z,21.7710
2023-04-11T15:19:57.081Z,21.7036
2023-04-11T15:20:59.861Z,21.7040
2023-04-11T15:22:02.306Z,21.7291
2023-04-11T15:23:04.867Z,21.7432
2023-04-11T15:24:07.504Z,21.7775
2023-04-11T15:25:10.042Z,21.8100
2023-04-11T15:26:12.607Z,21.8525
2023-04-11T15:27:15.168Z,21.9043
2023-04-11T15:28:18.586Z,21.9410
2023-04-11T15:29:20.393Z,21.9704
2023-04-11T15:30:22.885Z,22.0029
2023-04-11T15:31:25.593Z,22.0222
2023-04-11T15:32:28.113Z,22.0528
2023-04-11T15:33:30.651Z,22.0711
2023-04-11T15:34:33.205Z,22.0918
2023-04-11T15:35:35.813Z,22.1097
2023-04-11T15:36:38.380Z,22.1331
2023-04-11T15:37:41.216Z,22.1434
2023-04-11T15:38:43.555Z,22.1333
2023-04-11T15:39:46.100Z,22.1526
2023-04-11T15:40:48.738Z,22.1855
2023-04-11T15:41:51.325Z,22.1949
2023-04-11T15:42:53.920Z,22.2118
2023-04-11T15:43:56.591Z,22.2112
2023-04-11T15:44:59.034Z,22.2282
2023-04-11T15:46:01.644Z,22.2323
2023-04-11T15:47:04.326Z,22.2391
2023-04-11T15:48:06.939Z,22.2637
2023-04-11T15:49:09.369Z,22.2376
2023-04-11T15:50:11.992Z,22.2231
2023-04-11T15:51:14.527Z,22.2317
2023-04-11T15:52:17.156Z,22.2416
2023-04-11T15:53:19.720Z,22.2496
2023-04-11T15:54:22.331Z,22.2551
2023-04-11T15:55:24.909Z,22.2602
2023-04-11T15:56:27.443Z,22.2629
2023-04-11T15:57:30.041Z,22.2600
2023-04-11T15:58:33.858Z,22.2576
2023-04-11T15:59:35.260Z,22.2561
2023-04-11T16:00:38.027Z,22.2516
2023-04-11T16:01:40.602Z,22.2520
2023-04-11T16:02:43.269Z,22.2459
2023-04-11T16:03:45.759Z,22.2418
2023-04-11T16:04:49.196Z,22.2613
2023-04-11T16:05:50.794Z,22.2607
2023-04-11T16:06:53.353Z,22.2611
2023-04-11T16:07:55.910Z,22.2699
2023-04-11T16:08:58.458Z,22.2695
2023-04-11T16:10:01.102Z,22.2664
2023-04-11T16:11:03.690Z,22.2625
2023-04-11T16:12:06.238Z,22.2732
2023-04-11T16:13:09.107Z,22.2806
2023-04-11T16:14:12.198Z,22.2261
2023-04-11T16:24:33.203Z,22.2482
2023-04-11T16:24:33.203Z,22.2358
2023-04-11T16:25:25.353Z,22.0522
2023-04-11T16:26:27.957Z,22.0333
2023-04-11T16:27:30.487Z,22.0207
2023-04-11T16:28:33.213Z,22.0435
2023-04-11T16:29:35.699Z,22.0033
2023-04-11T16:30:38.242Z,21.9827
2023-04-11T16:31:40.839Z,21.9772
2023-04-11T16:32:43.468Z,21.9838
2023-04-11T16:33:46.052Z,21.9969
2023-04-11T16:34:48.603Z,22.0022
2023-04-11T16:35:51.190Z,22.0142
2023-04-11T16:36:53.794Z,22.0218
2023-04-11T16:37:56.361Z,22.0322
2023-04-11T16:38:58.917Z,22.0454
2023-04-11T16:40:01.489Z,22.0596
2023-04-11T16:41:04.083Z,22.0937
2023-04-11T16:42:06.713Z,22.1091
2023-04-11T16:43:09.385Z,22.1089
2023-04-11T16:44:11.917Z,22.1228
2023-04-11T16:45:14.466Z,22.1257
2023-04-11T16:46:17.441Z,22.1275
2023-04-11T16:47:19.741Z,22.1397
2023-04-11T16:48:22.711Z,22.1473
2023-04-11T16:49:24.817Z,22.1532
2023-04-11T16:50:27.381Z,22.1672
